createdAt,value
2022-11-26T00:01:01.163Z,5.45
2022-11-26T00:03:27.737Z,5.25
2022-11-26T00:05:57.316Z,5.50
2022-11-26T00:08:33.088Z,5.45
2022-11-26T00:11:00.359Z,5.45
2022-11-26T00:13:29.221Z,5.60
2022-11-26T00:15:56.658Z,5.97
2022-11-26T00:18:26.417Z,5.85
2022-11-26T00:20:56.178Z,5.32
2022-11-26T00:23:26.168Z,5.15
2022-11-26T00:26:03.657Z,5.85
2022-11-26T00:28:38.293Z,6.97
2022-11-26T00:31:11.647Z,5.47
2022-11-26T00:33:38.281Z,5.53
2022-11-26T00:36:30.414Z,6.18
2022-11-26T00:39:06.271Z,5.68
2022-11-26T00:41:35.982Z,5.88
2022-11-26T00:44:02.384Z,6.13
2022-11-26T00:46:28.966Z,5.82
2022-11-26T00:48:56.085Z,5.57
2022-11-26T00:51:27.230Z,5.68
2022-11-26T00:53:56.229Z,5.88
2022-11-26T00:56:23.414Z,5.18
2022-11-26T00:58:50.743Z,5.80
2022-11-26T01:01:22.913Z,6.70
2022-11-26T01:03:49.721Z,6.75
2022-11-26T01:06:22.317Z,5.90
2022-11-26T01:08:48.806Z,6.05
2022-11-26T01:11:19.739Z,5.35
2022-11-26T01:13:48.385Z,5.50
2022-11-26T01:18:47.919Z,5.70
2022-11-26T01:21:14.784Z,5.65
2022-11-26T01:23:41.562Z,5.05
2022-11-26T01:26:18.387Z,6.55
2022-11-26T01:28:45.693Z,6.05
2022-11-26T01:31:22.253Z,5.95
2022-11-26T01:33:49.356Z,5.65
2022-11-26T01:36:35.554Z,5.22
2022-11-26T01:39:21.127Z,6.38
2022-11-26T01:42:06.587Z,6.00
2022-11-26T01:44:36.077Z,5.78
2022-11-26T01:47:20.331Z,5.93
2022-11-26T01:50:24.254Z,5.78
2022-11-26T01:52:50.788Z,5.28
2022-11-26T01:55:17.888Z,6.03
2022-11-26T01:57:44.750Z,4.95
2022-11-26T02:00:12.407Z,5.22
2022-11-26T02:02:39.427Z,5.80
2022-11-26T02:05:25.008Z,5.75
2022-11-26T02:07:53.302Z,6.18
2022-11-26T02:10:20.081Z,5.57
2022-11-26T02:12:47.284Z,5.78
2022-11-26T02:15:14.022Z,6.25
2022-11-26T02:17:48.364Z,5.25
2022-11-26T02:20:48.267Z,5.75
2022-11-26T02:23:35.017Z,6.72
2022-11-26T02:26:24.287Z,6.03
2022-11-26T02:28:56.551Z,6.50
2022-11-26T02:31:26.018Z,6.10
2022-11-26T02:34:03.146Z,5.00
2022-11-26T02:36:47.024Z,6.70
2022-11-26T02:39:16.282Z,5.60
2022-11-26T02:41:48.688Z,6.15
2022-11-26T02:44:17.162Z,5.85
2022-11-26T02:46:47.166Z,6.22
2022-11-26T02:49:17.455Z,5.75
2022-11-26T02:51:45.536Z,5.55
2022-11-26T02:54:14.172Z,6.07
2022-11-26T02:56:41.484Z,5.65
2022-11-26T02:59:10.615Z,5.82
2022-11-26T03:01:52.384Z,5.28
2022-11-26T03:04:26.696Z,6.32
2022-11-26T03:06:56.671Z,6.00
2022-11-26T03:09:23.890Z,5.70
2022-11-26T03:11:50.536Z,5.25
2022-11-26T03:14:17.166Z,5.47
2022-11-26T03:16:43.917Z,5.35
2022-11-26T03:19:10.577Z,5.57
2022-11-26T03:21:36.989Z,6.88
2022-11-26T03:24:03.484Z,5.80
2022-11-26T03:26:29.921Z,6.03
2022-11-26T03:28:57.591Z,5.32
2022-11-26T03:31:24.201Z,5.60
2022-11-26T03:33:50.795Z,5.57
2022-11-26T03:36:17.231Z,4.60
2022-11-26T03:38:43.618Z,5.20
2022-11-26T03:41:10.177Z,6.03
2022-11-26T03:43:36.790Z,4.88
2022-11-26T03:46:03.464Z,5.55
2022-11-26T03:48:29.977Z,5.28
2022-11-26T03:50:56.502Z,4.65
2022-11-26T03:53:23.040Z,4.90
2022-11-26T03:55:49.687Z,4.70
2022-11-26T03:58:16.107Z,5.55
2022-11-26T04:00:42.825Z,5.43
2022-11-26T04:03:09.484Z,4.63
2022-11-26T04:05:36.129Z,5.38
2022-11-26T04:08:02.730Z,5.60
2022-11-26T04:10:29.369Z,5.90
2022-11-26T04:12:55.784Z,5.10
2022-11-26T04:15:22.184Z,5.38
2022-11-26T04:17:48.801Z,5.72
2022-11-26T04:20:15.492Z,5.45
2022-11-26T04:22:41.908Z,6.13
2022-11-26T04:25:08.749Z,6.22
2022-11-26T04:27:35.531Z,5.18
2022-11-26T04:30:02.261Z,5.18
2022-11-26T04:32:29.044Z,5.97
2022-11-26T04:34:55.446Z,6.18
2022-11-26T04:37:22.020Z,5.05
2022-11-26T04:39:48.608Z,6.38
2022-11-26T04:42:15.193Z,5.85
2022-11-26T04:44:43.043Z,4.82
2022-11-26T04:47:09.656Z,5.20
2022-11-26T04:49:36.245Z,5.82
2022-11-26T04:52:02.885Z,5.35
2022-11-26T04:54:29.493Z,5.07
2022-11-26T04:56:56.148Z,5.90
2022-11-26T04:59:22.788Z,6.32
2022-11-26T05:01:49.216Z,5.43
2022-11-26T05:04:15.828Z,5.78
2022-11-26T05:06:42.389Z,6.40
2022-11-26T05:09:09.015Z,5.03
2022-11-26T05:11:35.603Z,5.95
2022-11-26T05:14:02.052Z,5.35
2022-11-26T05:16:28.599Z,6.03
2022-11-26T05:18:55.310Z,5.53
2022-11-26T05:21:21.934Z,5.57
2022-11-26T05:23:48.769Z,5.85
2022-11-26T05:26:15.316Z,5.57
2022-11-26T05:28:41.836Z,6.18
2022-11-26T05:31:08.352Z,6.40
2022-11-26T05:33:35.126Z,6.43
2022-11-26T05:36:01.633Z,6.28
2022-11-26T05:38:28.528Z,6.35
2022-11-26T05:40:55.107Z,6.00
2022-11-26T05:43:21.639Z,6.18
2022-11-26T05:45:48.138Z,7.10
2022-11-26T05:48:14.668Z,6.78
2022-11-26T05:50:41.096Z,5.78
2022-11-26T05:53:07.751Z,6.80
2022-11-26T05:55:34.617Z,6.55
2022-11-26T05:58:01.144Z,6.68
2022-11-26T06:00:27.896Z,7.80
2022-11-26T06:02:54.580Z,6.80
2022-11-26T06:05:21.881Z,7.28
2022-11-26T06:07:48.505Z,7.20
2022-11-26T06:10:14.978Z,6.75
2022-11-26T06:12:41.875Z,6.18
2022-11-26T06:15:08.974Z,6.75
2022-11-26T06:17:35.395Z,7.43
2022-11-26T06:20:01.905Z,6.32
2022-11-26T06:22:28.548Z,6.75
2022-11-26T06:24:54.984Z,6.75
2022-11-26T06:27:21.601Z,7.45
2022-11-26T06:29:48.224Z,6.57
2022-11-26T06:32:14.688Z,6.43
2022-11-26T06:34:43.855Z,7.72
2022-11-26T06:37:10.740Z,7.45
2022-11-26T06:39:37.382Z,6.40
2022-11-26T06:42:03.965Z,7.07
2022-11-26T06:44:30.548Z,7.10
2022-11-26T06:46:57.131Z,7.00
2022-11-26T06:49:24.759Z,6.68
2022-11-26T06:51:51.199Z,7.18
2022-11-26T06:54:17.600Z,7.28
2022-11-26T06:56:44.058Z,7.30
2022-11-26T06:59:10.673Z,6.85
2022-11-26T07:01:37.696Z,6.88
2022-11-26T07:04:04.652Z,6.38
2022-11-26T07:06:33.116Z,6.97
2022-11-26T07:09:04.491Z,7.68
2022-11-26T07:11:31.239Z,7.97
2022-11-26T07:13:57.871Z,7.50
2022-11-26T07:16:24.796Z,8.43
2022-11-26T07:18:56.521Z,7.70
2022-11-26T07:21:28.764Z,7.45
2022-11-26T07:23:55.192Z,6.55
2022-11-26T07:26:23.032Z,6.55
2022-11-26T07:28:50.138Z,8.13
2022-11-26T07:31:19.444Z,7.15
2022-11-26T07:33:46.741Z,7.30
2022-11-26T07:36:27.967Z,9.13
2022-11-26T07:38:58.792Z,11.15
2022-11-26T07:41:26.650Z,6.97
2022-11-26T07:43:53.702Z,6.03
2022-11-26T07:46:22.845Z,7.43
2022-11-26T07:48:50.042Z,7.53
2022-11-26T07:51:20.758Z,5.78
2022-11-26T07:53:47.797Z,6.60
2022-11-26T07:56:14.544Z,6.57
2022-11-26T07:58:41.190Z,5.70
2022-11-26T08:01:12.392Z,5.28
2022-11-26T08:03:40.602Z,5.38
2022-11-26T08:06:12.251Z,5.43
2022-11-26T08:08:39.906Z,5.30
2022-11-26T08:11:14.039Z,4.85
2022-11-26T08:13:41.438Z,5.57
2022-11-26T08:16:08.234Z,6.22
2022-11-26T08:18:35.992Z,3.67
2022-11-26T08:21:03.150Z,4.85
2022-11-26T08:23:30.777Z,4.97
2022-11-26T08:28:45.988Z,5.28
2022-11-26T08:31:14.415Z,5.20
2022-11-26T08:33:41.278Z,5.10
2022-11-26T08:36:08.951Z,5.55
2022-11-26T08:38:36.211Z,4.93
2022-11-26T08:41:08.519Z,4.40
2022-11-26T08:44:04.519Z,5.60
2022-11-26T08:46:22.740Z,5.07
2022-11-26T08:48:49.223Z,4.35
2022-11-26T08:51:17.475Z,5.35
2022-11-26T08:53:45.980Z,4.72
2022-11-26T08:56:13.290Z,5.53
2022-11-26T08:58:42.730Z,4.85
2022-11-26T09:01:11.513Z,4.38
2022-11-26T09:03:38.958Z,3.80
2022-11-26T09:06:07.418Z,4.47
2022-11-26T09:09:07.090Z,4.95
2022-11-26T09:11:36.680Z,4.15
2022-11-26T09:14:03.827Z,3.70
2022-11-26T09:16:31.162Z,4.30
2022-11-26T09:19:01.176Z,3.92
2022-11-26T09:21:27.886Z,4.03
2022-11-26T09:23:55.372Z,4.47
2022-11-26T09:26:22.434Z,4.30
2022-11-26T09:28:49.286Z,4.35
2022-11-26T09:31:16.708Z,4.20
2022-11-26T09:33:44.157Z,3.95
2022-11-26T09:36:16.516Z,3.95
2022-11-26T09:38:43.964Z,3.80
2022-11-26T09:41:18.661Z,3.97
2022-11-26T09:44:05.226Z,4.18
2022-11-26T09:46:50.996Z,4.50
2022-11-26T09:49:25.201Z,4.30
2022-11-26T09:51:54.936Z,4.22
2022-11-26T09:54:25.774Z,4.30
2022-11-26T09:57:06.239Z,4.10
2022-11-26T09:59:36.832Z,4.65
2022-11-26T10:02:03.830Z,4.03
2022-11-26T10:04:34.889Z,4.10
2022-11-26T10:07:24.918Z,4.05
2022-11-26T10:10:03.701Z,4.93
2022-11-26T10:12:56.302Z,4.43
2022-11-26T10:15:36.402Z,4.18
2022-11-26T10:18:10.752Z,4.38
2022-11-26T10:21:11.542Z,4.50
2022-11-26T10:24:10.216Z,4.57
2022-11-26T10:26:39.639Z,4.78
2022-11-26T11:05:36.138Z,5.05
2022-11-26T11:08:02.984Z,4.78
2022-11-26T11:10:30.038Z,4.60
2022-11-26T11:13:22.524Z,4.70
2022-11-26T11:16:00.770Z,4.57
2022-11-26T11:18:27.773Z,4.78
2022-11-26T11:20:57.293Z,4.68
2022-11-26T11:23:52.372Z,4.75
2022-11-26T11:26:24.764Z,4.78
2022-11-26T11:28:54.534Z,5.20
2022-11-26T11:31:23.894Z,4.45
2022-11-26T11:33:52.342Z,4.25
2022-11-26T11:36:28.405Z,3.97
2022-11-26T11:39:00.455Z,4.50
2022-11-26T11:41:31.279Z,4.47
2022-11-26T11:44:15.453Z,4.53
2022-11-26T11:47:00.672Z,4.78
2022-11-26T11:49:36.581Z,4.38
2022-11-26T11:52:19.636Z,4.72
2022-11-26T11:55:02.694Z,4.25
2022-11-26T11:57:43.851Z,4.53
2022-11-26T12:00:13.695Z,4.35
2022-11-26T12:03:00.087Z,4.25
2022-11-26T12:05:30.109Z,4.35
2022-11-26T12:08:12.175Z,5.13
2022-11-26T12:11:03.190Z,4.40
2022-11-26T12:13:36.688Z,4.75
2022-11-26T12:16:07.088Z,4.53
2022-11-26T12:18:51.889Z,4.15
2022-11-26T12:21:29.386Z,4.53
2022-11-26T12:24:06.056Z,4.88
2022-11-26T12:26:35.866Z,4.28
2022-11-26T12:29:17.785Z,4.72
2022-11-26T12:31:49.479Z,4.60
2022-11-26T12:34:31.129Z,4.53
2022-11-26T12:37:03.307Z,4.53
2022-11-26T12:39:38.931Z,5.35
2022-11-26T12:42:17.641Z,4.47
2022-11-26T12:44:49.691Z,5.03
2022-11-26T12:47:24.486Z,4.97
2022-11-26T12:50:21.245Z,4.88
2022-11-26T12:53:00.853Z,5.13
2022-11-26T12:55:43.035Z,5.85
2022-11-26T12:58:25.913Z,5.32
2022-11-26T13:00:54.966Z,4.38
2022-11-26T13:03:29.827Z,5.30
2022-11-26T13:06:02.017Z,5.10
2022-11-26T13:08:37.822Z,5.75
2022-11-26T13:11:39.100Z,5.57
2022-11-26T13:14:42.211Z,5.20
2022-11-26T13:17:17.470Z,5.32
2022-11-26T13:19:55.206Z,4.82
2022-11-26T13:22:46.693Z,4.40
2022-11-26T13:25:44.666Z,4.40
2022-11-26T13:28:44.359Z,5.18
2022-11-26T13:31:32.297Z,4.70
2022-11-26T13:36:56.596Z,4.72
2022-11-26T13:39:38.403Z,5.05
2022-11-26T13:42:31.216Z,4.82
2022-11-26T13:45:20.306Z,4.05
2022-11-26T13:47:54.382Z,3.88
2022-11-26T13:50:38.230Z,4.15
2022-11-26T13:53:23.719Z,4.35
2022-11-26T13:56:01.169Z,3.95
2022-11-26T13:58:33.752Z,4.47
2022-11-26T14:01:29.984Z,3.92
2022-11-26T14:04:03.311Z,4.45
2022-11-26T14:06:30.912Z,4.32
2022-11-26T14:08:58.159Z,4.85
2022-11-26T14:11:46.400Z,4.35
2022-11-26T14:14:25.301Z,4.18
2022-11-26T14:17:00.800Z,4.07
2022-11-26T14:19:39.535Z,3.95
2022-11-26T14:22:24.261Z,3.95
2022-11-26T14:24:50.640Z,3.42
2022-11-26T14:27:19.227Z,4.22
2022-11-26T14:32:32.476Z,3.78
2022-11-26T14:34:59.083Z,3.90
2022-11-26T14:37:31.404Z,4.55
2022-11-26T14:40:03.135Z,4.13
2022-11-26T14:42:30.510Z,3.70
2022-11-26T14:45:17.384Z,3.75
2022-11-26T14:47:46.743Z,3.58
2022-11-26T14:50:17.474Z,3.70
2022-11-26T14:52:46.018Z,3.70
2022-11-26T14:55:15.444Z,3.80
2022-11-26T14:57:50.037Z,3.63
2022-11-26T15:00:16.586Z,4.10
2022-11-26T15:02:48.234Z,4.20
2022-11-26T15:05:18.242Z,4.03
2022-11-26T15:07:45.879Z,3.45
2022-11-26T15:10:15.463Z,3.78
2022-11-26T15:12:44.263Z,3.42
2022-11-26T15:15:20.535Z,3.58
2022-11-26T15:17:53.342Z,3.05
2022-11-26T15:20:20.901Z,3.45
2022-11-26T15:23:01.978Z,2.92
2022-11-26T15:25:31.832Z,3.90
2022-11-26T15:28:15.347Z,2.90
2022-11-26T15:30:52.350Z,3.47
2022-11-26T15:33:19.659Z,2.88
2022-11-26T15:35:46.535Z,3.28
2022-11-26T15:38:18.936Z,3.33
2022-11-26T15:40:47.080Z,3.40
2022-11-26T15:43:26.632Z,3.90
2022-11-26T15:45:56.647Z,3.30
2022-11-26T15:48:50.410Z,3.28
2022-11-26T15:51:35.406Z,3.45
2022-11-26T15:54:06.234Z,3.30
2022-11-26T15:56:37.357Z,3.45
2022-11-26T15:59:13.814Z,3.25
2022-11-26T16:01:45.164Z,3.85
2022-11-26T16:04:44.515Z,3.78
2022-11-26T16:07:15.696Z,4.05
2022-11-26T16:09:43.203Z,3.35
2022-11-26T16:12:28.032Z,3.72
2022-11-26T16:15:12.270Z,2.83
2022-11-26T16:17:43.190Z,3.15
2022-11-26T16:20:21.637Z,3.17
2022-11-26T16:22:51.534Z,3.20
2022-11-26T16:25:38.432Z,3.33
2022-11-26T16:28:04.905Z,4.25
2022-11-26T16:30:32.009Z,3.53
2022-11-26T16:32:58.626Z,3.13
2022-11-26T16:35:44.694Z,3.30
2022-11-26T16:38:21.200Z,3.25
2022-11-26T16:40:48.024Z,3.50
2022-11-26T16:43:14.890Z,3.50
2022-11-26T16:45:41.707Z,4.18
2022-11-26T16:48:24.294Z,3.83
2022-11-26T16:50:51.527Z,3.65
2022-11-26T16:53:18.357Z,3.75
2022-11-26T16:55:45.033Z,3.33
2022-11-26T16:58:22.083Z,3.67
2022-11-26T17:00:51.027Z,3.80
2022-11-26T17:03:27.517Z,3.53
2022-11-26T17:05:56.592Z,3.70
2022-11-26T17:08:23.144Z,4.45
2022-11-26T17:10:51.154Z,3.65
2022-11-26T17:13:18.619Z,3.65
2022-11-26T17:15:45.463Z,3.85
2022-11-26T17:18:20.759Z,3.42
2022-11-26T17:20:48.211Z,3.28
2022-11-26T17:23:15.127Z,3.70
2022-11-26T17:25:45.149Z,3.22
2022-11-26T17:28:15.564Z,4.25
2022-11-26T17:30:44.166Z,4.82
2022-11-26T17:33:11.343Z,3.75
2022-11-26T17:35:38.395Z,3.47
2022-11-26T17:38:14.048Z,3.97
2022-11-26T17:40:40.483Z,3.92
2022-11-26T17:43:07.071Z,4.38
2022-11-26T17:45:33.645Z,4.72
2022-11-26T17:48:00.132Z,4.95
2022-11-26T17:50:28.893Z,4.38
2022-11-26T17:55:24.822Z,4.80
2022-11-26T17:57:52.078Z,5.28
2022-11-26T18:00:28.162Z,4.97
2022-11-26T18:02:55.103Z,4.43
2022-11-26T18:05:22.189Z,4.30
2022-11-26T18:07:50.358Z,5.20
2022-11-26T18:10:19.203Z,5.45
2022-11-26T18:12:46.570Z,4.32
2022-11-26T18:15:24.702Z,4.15
2022-11-26T18:17:53.421Z,4.20
2022-11-26T18:22:52.742Z,4.18
2022-11-26T18:25:19.579Z,3.75
2022-11-26T18:27:46.293Z,4.25
2022-11-26T18:30:13.613Z,3.90
2022-11-26T18:32:40.334Z,3.40
2022-11-26T18:35:07.471Z,3.70
2022-11-26T18:37:35.123Z,3.67
2022-11-26T18:40:01.830Z,3.83
2022-11-26T18:42:43.854Z,3.53
2022-11-26T18:45:13.176Z,3.10
2022-11-26T18:47:39.636Z,3.75
2022-11-26T18:50:07.001Z,3.88
2022-11-26T18:52:33.500Z,4.30
2022-11-26T18:55:00.164Z,4.40
2022-11-26T18:57:27.322Z,4.07
2022-11-26T18:59:53.881Z,3.42
2022-11-26T19:02:20.647Z,4.22
2022-11-26T19:04:47.429Z,3.42
2022-11-26T19:07:14.186Z,3.85
2022-11-26T19:09:41.871Z,3.97
2022-11-26T19:12:09.123Z,4.15
2022-11-26T19:14:36.117Z,4.07
2022-11-26T19:17:02.851Z,4.32
2022-11-26T19:19:29.583Z,3.67
2022-11-26T19:22:00.948Z,4.00
2022-11-26T19:24:29.685Z,4.10
2022-11-26T19:26:56.889Z,4.40
2022-11-26T19:29:23.457Z,4.75
2022-11-26T19:31:50.123Z,4.35
2022-11-26T19:34:17.229Z,3.42
2022-11-26T19:36:48.118Z,4.10
2022-11-26T19:39:16.091Z,4.15
2022-11-26T19:41:42.826Z,3.60
2022-11-26T19:44:09.403Z,3.42
2022-11-26T19:46:40.431Z,4.43
2022-11-26T19:49:07.529Z,4.13
2022-11-26T19:51:33.994Z,4.00
2022-11-26T19:54:00.628Z,3.35
2022-11-26T19:56:29.372Z,3.58
2022-11-26T19:59:00.638Z,4.10
2022-11-26T20:01:32.031Z,3.70
2022-11-26T20:04:00.392Z,3.90
2022-11-26T20:06:28.868Z,3.60
2022-11-26T20:08:56.154Z,3.65
2022-11-26T20:11:23.072Z,3.60
2022-11-26T20:13:50.574Z,3.90
2022-11-26T20:16:22.692Z,3.25
2022-11-26T20:18:49.665Z,3.85
2022-11-26T20:21:21.433Z,4.32
2022-11-26T20:23:49.479Z,3.47
2022-11-26T20:26:29.318Z,4.43
2022-11-26T20:28:59.133Z,4.25
2022-11-26T20:31:25.693Z,4.85
2022-11-26T20:33:53.290Z,4.35
2022-11-26T20:36:22.937Z,3.70
2022-11-26T20:38:54.812Z,3.75
2022-11-26T20:41:22.078Z,3.50
2022-11-26T20:43:53.548Z,3.42
2022-11-26T20:46:24.218Z,3.72
2022-11-26T20:48:50.920Z,3.40
2022-11-26T20:51:19.170Z,3.65
2022-11-26T20:53:46.210Z,3.45
2022-11-26T20:56:14.489Z,3.50
2022-11-26T20:58:41.621Z,3.78
2022-11-26T21:01:19.863Z,3.75
2022-11-26T21:03:46.893Z,3.88
2022-11-26T21:06:14.876Z,4.10
2022-11-26T21:08:42.016Z,4.07
2022-11-26T21:11:09.824Z,3.55
2022-11-26T21:13:37.930Z,3.40
2022-11-26T21:16:06.635Z,3.35
2022-11-26T21:21:00.160Z,3.63
2022-11-26T21:23:27.382Z,3.38
2022-11-26T21:25:54.550Z,4.35
2022-11-26T21:28:21.238Z,3.13
2022-11-26T21:30:47.959Z,3.53
2022-11-26T21:33:14.753Z,4.07
2022-11-26T21:35:41.229Z,4.25
2022-11-26T21:38:07.917Z,3.85
2022-11-26T21:40:34.338Z,3.50
2022-11-26T21:43:00.860Z,3.13
2022-11-26T21:45:30.180Z,3.50
2022-11-26T21:47:56.827Z,3.88
2022-11-26T21:50:23.528Z,3.90
2022-11-26T21:52:49.978Z,3.67
2022-11-26T21:55:16.524Z,3.40
2022-11-26T21:57:43.056Z,3.65
2022-11-26T22:00:10.008Z,3.40
2022-11-26T22:02:36.630Z,3.17
2022-11-26T22:05:03.388Z,3.30
2022-11-26T22:07:30.735Z,3.35
2022-11-26T22:09:57.371Z,3.05
2022-11-26T22:12:23.793Z,3.53
2022-11-26T22:14:50.252Z,3.97
2022-11-26T22:17:16.733Z,3.00
2022-11-26T22:19:43.184Z,3.75
2022-11-26T22:22:09.605Z,3.70
2022-11-26T22:24:36.283Z,3.53
2022-11-26T22:27:02.904Z,3.90
2022-11-26T22:29:29.526Z,3.65
2022-11-26T22:31:55.959Z,3.70
2022-11-26T22:34:24.444Z,3.55
2022-11-26T22:36:51.141Z,2.95
2022-11-26T22:39:18.343Z,3.78
2022-11-26T22:41:46.713Z,3.28
2022-11-26T22:44:15.793Z,2.90
2022-11-26T22:46:42.879Z,3.75
2022-11-26T22:49:14.440Z,3.55
2022-11-26T22:51:42.700Z,3.97
2022-11-26T22:54:11.774Z,3.45
2022-11-26T22:56:38.922Z,3.38
2022-11-26T22:59:07.631Z,3.08
2022-11-26T23:04:03.923Z,4.35
2022-11-26T23:06:32.536Z,2.97
2022-11-26T23:08:59.735Z,3.42
2022-11-26T23:11:29.548Z,3.95
2022-11-26T23:13:56.644Z,3.35
2022-11-26T23:16:25.825Z,3.35
2022-11-26T23:18:56.596Z,3.70
2022-11-26T23:21:35.222Z,3.35
2022-11-26T23:24:01.954Z,3.20
2022-11-26T23:26:30.857Z,2.97
2022-11-26T23:28:59.350Z,3.00
2022-11-26T23:31:32.038Z,2.83
2022-11-26T23:33:59.001Z,2.85
2022-11-26T23:36:26.910Z,2.83
2022-11-26T23:38:54.296Z,3.63
2022-11-26T23:41:21.136Z,2.78
2022-11-26T23:43:47.734Z,2.70
2022-11-26T23:46:20.045Z,2.63
2022-11-26T23:48:47.405Z,2.42
2022-11-26T23:51:16.764Z,2.88
2022-11-26T23:53:45.325Z,2.70
2022-11-26T23:56:17.322Z,2.95
2022-11-26T23:58:44.323Z,2.65
